Time;durP1;ratioP1;P1;durP2;ratioP2;P2;SDS_P1;SDS_P2;PMS_P1;PMS_P2;Temp;Humidity;BMP_temperature;BMP_pressure;BME280_temperature;BME280_humidity;BME280_pressure;Samples;Min_cycle;Max_cycle;Signal;HPM_P1;HPM_P2
2022/01/31 00:00:54;;;;;;;15.70;5.20;;;;;;;6.08;58.98;100111.59;4980819;28;20019;-83
2022/01/31 00:03:19;;;;;;;23.55;4.65;;;;;;;6.11;58.82;100116.69;4962992;28;20034;-85
2022/01/31 00:05:45;;;;;;;12.95;4.70;;;;;;;6.09;58.95;100102.59;4996530;28;20025;-85
2022/01/31 00:08:10;;;;;;;22.52;5.40;;;;;;;6.16;58.78;100114.56;5000642;28;20034;-85
2022/01/31 00:10:57;;;;;;;16.90;4.97;;;;;;;6.16;58.72;100122.56;4998200;28;20476;-85
2022/01/31 00:13:36;;;;;;;11.32;5.65;;;;;;;6.19;58.63;100126.81;4979437;28;20054;-84
2022/01/31 00:16:03;;;;;;;16.40;5.20;;;;;;;6.20;58.35;100131.22;4996592;28;20037;-84
2022/01/31 00:18:28;;;;;;;17.08;6.28;;;;;;;6.13;58.31;100120.09;5010634;28;20030;-84
2022/01/31 00:20:54;;;;;;;13.98;6.05;;;;;;;6.23;58.19;100131.00;5016111;28;20031;-85
2022/01/31 00:23:19;;;;;;;20.92;6.07;;;;;;;6.11;58.58;100143.41;5001132;28;20031;-86
2022/01/31 00:25:45;;;;;;;16.67;5.00;;;;;;;6.07;58.80;100133.03;4978243;28;20434;-86
2022/01/31 00:28:10;;;;;;;13.00;5.40;;;;;;;5.95;58.95;100127.59;4995868;28;20022;-85
2022/01/31 00:30:36;;;;;;;16.30;4.93;;;;;;;6.03;58.99;100129.72;4996071;28;20041;-84
2022/01/31 00:33:02;;;;;;;16.02;5.70;;;;;;;5.96;58.55;100139.97;4996044;28;20026;-86
2022/01/31 00:35:27;;;;;;;12.48;4.47;;;;;;;6.01;58.88;100126.31;4977931;28;20077;-85
2022/01/31 00:37:53;;;;;;;21.15;5.70;;;;;;;5.97;58.84;100132.81;4995975;28;20417;-84
2022/01/31 00:40:19;;;;;;;13.23;5.13;;;;;;;5.88;58.64;100130.81;4995868;28;20030;-85
2022/01/31 00:42:46;;;;;;;12.48;4.43;;;;;;;5.84;58.85;100150.66;4996767;28;20029;-85
2022/01/31 00:47:58;;;;;;;26.20;6.57;;;;;;;5.74;59.55;100155.75;4996207;28;20093;-85
2022/01/31 00:50:23;;;;;;;22.33;7.05;;;;;;;5.77;59.83;100146.69;4996178;28;20050;-85
2022/01/31 00:52:48;;;;;;;25.38;7.40;;;;;;;5.85;59.74;100163.00;4996579;28;20026;-85
2022/01/31 00:55:14;;;;;;;32.70;11.82;;;;;;;5.88;59.43;100157.47;4995799;28;20022;-85
2022/01/31 00:57:40;;;;;;;28.58;8.07;;;;;;;5.81;59.41;100164.19;4995964;28;20027;-85
2022/01/31 01:00:07;;;;;;;27.38;8.52;;;;;;;5.69;59.94;100159.72;4978798;28;20156;-85
2022/01/31 01:02:32;;;;;;;32.05;8.55;;;;;;;5.61;60.19;100156.69;4995395;28;20026;-85
2022/01/31 01:04:58;;;;;;;29.85;5.60;;;;;;;5.62;59.82;100145.94;4995793;28;20033;-86
2022/01/31 01:07:23;;;;;;;28.10;5.30;;;;;;;5.70;59.54;100153.38;4995587;28;20449;-85
2022/01/31 01:09:49;;;;;;;18.25;4.47;;;;;;;5.62;59.21;100153.94;4998405;28;20034;-85
2022/01/31 01:12:17;;;;;;;24.02;4.05;;;;;;;5.50;59.29;100150.25;4997233;28;20030;-85
2022/01/31 01:14:44;;;;;;;23.50;4.57;;;;;;;5.65;59.12;100163.53;4978356;28;20031;-85
2022/01/31 01:17:09;;;;;;;27.60;6.03;;;;;;;5.55;58.90;100159.78;4996257;28;20484;-85
2022/01/31 01:19:35;;;;;;;25.20;4.30;;;;;;;5.54;58.93;100164.25;4995048;28;20033;-85
2022/01/31 01:22:02;;;;;;;23.73;3.90;;;;;;;5.53;58.74;100161.72;4994942;28;20484;-85
2022/01/31 01:24:27;;;;;;;27.05;4.53;;;;;;;5.54;59.28;100161.59;4995587;28;20057;-85
2022/01/31 01:26:53;;;;;;;27.98;6.03;;;;;;;5.55;58.68;100170.44;4995706;28;20014;-85
2022/01/31 01:29:20;;;;;;;13.60;4.22;;;;;;;5.54;58.86;100163.38;4995910;28;20037;-86
2022/01/31 01:31:47;;;;;;;29.92;4.97;;;;;;;5.61;58.85;100175.38;4994900;28;20018;-85
2022/01/31 01:34:12;;;;;;;23.83;4.93;;;;;;;5.63;58.66;100168.97;4995358;28;20037;-84
2022/01/31 01:36:38;;;;;;;18.88;4.43;;;;;;;5.71;58.52;100168.44;4995731;28;20030;-85
2022/01/31 01:39:05;;;;;;;16.42;3.45;;;;;;;5.66;58.54;100159.88;4996392;28;20030;-84
2022/01/31 01:41:31;;;;;;;21.83;4.93;;;;;;;5.69;58.30;100155.19;5005379;28;20026;-84
2022/01/31 01:43:57;;;;;;;18.60;4.88;;;;;;;5.72;58.24;100151.50;4998461;28;20492;-84
2022/01/31 01:46:23;;;;;;;24.40;5.55;;;;;;;5.71;58.26;100155.13;5010350;28;20029;-84
2022/01/31 01:48:49;;;;;;;30.73;7.57;;;;;;;5.78;57.91;100159.06;5009844;28;20058;-84
2022/01/31 01:51:15;;;;;;;39.65;6.40;;;;;;;5.79;57.82;100152.75;5013535;28;20054;-84
2022/01/31 01:53:40;;;;;;;14.23;5.22;;;;;;;5.71;57.73;100139.09;5011957;28;20022;-86
2022/01/31 01:56:07;;;;;;;24.38;5.13;;;;;;;5.75;57.86;100157.44;4977669;28;20026;-86
2022/01/31 01:58:39;;;;;;;37.80;5.68;;;;;;;5.73;57.78;100153.19;4994748;28;20015;-84
2022/01/31 02:01:06;;;;;;;45.15;6.00;;;;;;;5.78;57.63;100143.88;5017435;28;20086;-84
2022/01/31 02:03:33;;;;;;;38.30;8.05;;;;;;;5.85;57.23;100163.00;4998544;28;20030;-85
2022/01/31 02:06:00;;;;;;;17.45;5.13;;;;;;;5.74;57.34;100169.09;4995166;28;20033;-85
2022/01/31 02:08:27;;;;;;;27.52;5.93;;;;;;;5.71;57.32;100171.13;4995374;28;20105;-85
2022/01/31 02:10:53;;;;;;;24.75;5.05;;;;;;;5.75;57.45;100164.63;4994710;28;20100;-85
2022/01/31 02:13:19;;;;;;;36.53;5.25;;;;;;;5.78;57.50;100172.41;4977075;28;20104;-85
2022/01/31 02:15:49;;;;;;;22.52;5.60;;;;;;;5.79;57.02;100174.97;4994786;28;20022;-85
2022/01/31 02:18:16;;;;;;;22.42;5.72;;;;;;;5.78;56.94;100169.75;4994839;28;20026;-85
2022/01/31 02:20:42;;;;;;;25.83;5.60;;;;;;;5.71;56.61;100179.97;4995747;28;20076;-85
2022/01/31 02:23:09;;;;;;;37.92;8.50;;;;;;;5.70;56.52;100156.91;4994078;28;20023;-85
2022/01/31 02:26:01;;;;;;;28.08;5.32;;;;;;;5.65;56.88;100160.88;4994013;28;20022;-85
2022/01/31 02:28:28;;;;;;;32.85;5.10;;;;;;;5.60;56.43;100165.63;4994816;28;20022;-84
2022/01/31 02:30:55;;;;;;;35.05;6.03;;;;;;;5.73;56.40;100161.19;4994339;28;20397;-84
2022/01/31 02:33:21;;;;;;;35.08;5.65;;;;;;;5.72;56.06;100156.81;4994659;28;20030;-84
2022/01/31 02:35:53;;;;;;;47.13;6.90;;;;;;;5.80;56.18;100155.34;4994279;28;20027;-84
2022/01/31 02:38:19;;;;;;;;;;;;;;;5.83;55.90;100159.59;4995568;28;20064;-85
2022/01/31 02:40:45;;;;;;;20.77;6.60;;;;;;;5.73;55.67;100159.38;4995844;28;19949;-85
2022/01/31 02:43:12;;;;;;;36.35;5.88;;;;;;;5.78;55.28;100167.06;4995730;28;20022;-85
2022/01/31 02:45:38;;;;;;;29.05;4.97;;;;;;;5.82;55.08;100169.41;4995704;28;20084;-85
2022/01/31 02:48:04;;;;;;;24.27;5.20;;;;;;;5.84;54.83;100172.00;4994936;28;20480;-84
2022/01/31 02:50:30;;;;;;;28.20;5.28;;;;;;;5.78;54.78;100157.22;4994624;28;20108;-85
2022/01/31 02:53:13;;;;;;;37.35;7.22;;;;;;;5.88;54.11;100173.50;4993599;28;20026;-84
2022/01/31 02:55:42;;;;;;;42.53;4.95;;;;;;;5.76;54.03;100179.66;4993645;28;20029;-84
2022/01/31 02:58:07;;;;;;;27.88;4.78;;;;;;;5.75;54.04;100168.13;4993550;28;20030;-85
2022/01/31 03:00:34;;;;;;;40.92;4.78;;;;;;;5.75;53.96;100161.94;4994062;28;20026;-84
2022/01/31 03:03:00;;;;;;;38.25;4.95;;;;;;;5.85;53.98;100173.69;4993807;28;20022;-85
2022/01/31 03:05:25;;;;;;;35.83;4.82;;;;;;;5.78;53.50;100173.25;4993594;28;20046;-86
2022/01/31 03:07:51;;;;;;;24.75;5.03;;;;;;;5.80;53.58;100182.00;4993161;28;20038;-85
2022/01/31 03:10:16;;;;;;;23.33;5.10;;;;;;;5.85;53.40;100171.00;4993454;28;20026;-85
2022/01/31 03:12:42;;;;;;;42.90;6.22;;;;;;;5.81;53.36;100161.53;4994327;28;20058;-85
2022/01/31 03:15:08;;;;;;;36.95;5.00;;;;;;;5.75;53.01;100162.78;4993707;28;20385;-82
2022/01/31 03:17:34;;;;;;;41.75;6.22;;;;;;;5.78;53.32;100167.91;4977399;28;20495;-84
2022/01/31 03:20:00;;;;;;;58.83;5.13;;;;;;;5.84;52.86;100167.47;4994172;28;20168;-84
2022/01/31 03:22:26;;;;;;;40.28;5.50;;;;;;;5.68;52.88;100171.31;4994005;28;20069;-84
2022/01/31 03:24:51;;;;;;;59.97;5.35;;;;;;;5.69;53.21;100181.06;4976760;28;20090;-84
2022/01/31 03:27:17;;;;;;;30.85;4.05;;;;;;;5.69;53.08;100179.22;4993793;28;20477;-84
2022/01/31 03:29:43;;;;;;;34.38;4.68;;;;;;;5.61;53.08;100188.69;4993854;28;20498;-85
2022/01/31 03:32:09;;;;;;;48.28;5.53;;;;;;;5.56;53.38;100188.16;4994658;28;20034;-84
2022/01/31 03:34:34;;;;;;;27.48;4.65;;;;;;;5.48;53.17;100176.19;4976401;28;20125;-84
2022/01/31 03:37:00;;;;;;;26.52;4.60;;;;;;;5.65;53.28;100195.53;4980002;28;20022;-84
2022/01/31 03:39:25;;;;;;;39.33;5.93;;;;;;;5.63;52.82;100181.44;5017207;28;20045;-84
2022/01/31 03:41:51;;;;;;;29.95;6.80;;;;;;;5.54;52.95;100172.25;5007881;28;20053;-85
2022/01/31 03:44:17;;;;;;;56.17;9.40;;;;;;;5.67;53.06;100185.63;4975873;28;20030;-84
2022/01/31 03:46:43;;;;;;;33.75;5.05;;;;;;;5.50;53.06;100163.59;4978996;28;20389;-84
2022/01/31 03:49:08;;;;;;;33.25;4.45;;;;;;;5.63;52.79;100184.09;4996447;28;20108;-84
2022/01/31 03:51:34;;;;;;;41.33;5.35;;;;;;;5.57;53.13;100179.19;4996994;28;20069;-84
2022/01/31 03:53:59;;;;;;;33.30;4.35;;;;;;;5.63;52.54;100179.63;4997151;28;20045;-84
2022/01/31 03:56:25;;;;;;;28.30;4.70;;;;;;;5.66;52.82;100194.56;4997297;28;20030;-83
2022/01/31 03:58:50;;;;;;;48.45;4.47;;;;;;;5.63;52.55;100195.63;4996745;28;20042;-84
2022/01/31 04:01:16;;;;;;;35.17;5.20;;;;;;;5.64;52.55;100200.03;4996418;28;20077;-84
2022/01/31 04:03:41;;;;;;;37.83;4.95;;;;;;;5.68;52.59;100195.34;4996652;28;20034;-84
2022/01/31 04:06:06;;;;;;;35.60;4.40;;;;;;;5.66;52.43;100191.91;4996250;28;20053;-85
2022/01/31 04:08:32;;;;;;;34.50;4.70;;;;;;;5.68;52.14;100208.69;4996407;28;20065;-85
2022/01/31 04:10:58;;;;;;;35.45;5.82;;;;;;;5.73;52.42;100195.88;4996063;28;20026;-85
2022/01/31 04:13:26;;;;;;;31.80;4.32;;;;;;;5.75;52.44;100205.47;4997717;28;20062;-85
2022/01/31 04:15:51;;;;;;;57.75;6.53;;;;;;;5.71;52.05;100187.13;4981785;28;20025;-85
2022/01/31 04:18:17;;;;;;;39.42;4.35;;;;;;;5.67;52.36;100197.16;4996644;28;20506;-85
2022/01/31 04:20:42;;;;;;;39.60;3.88;;;;;;;5.74;52.13;100201.13;4978372;28;20030;-86
2022/01/31 04:23:13;;;;;;;28.70;3.65;;;;;;;5.64;52.19;100212.50;4996228;28;20018;-85
2022/01/31 04:25:46;;;;;;;39.22;5.45;;;;;;;5.65;52.04;100215.06;4998556;28;20029;-83
2022/01/31 04:28:31;;;;;;;34.33;4.95;;;;;;;5.73;52.20;100223.41;5001880;28;20026;-85
2022/01/31 04:31:09;;;;;;;35.58;4.40;;;;;;;5.74;51.92;100218.94;4996218;28;20022;-86
2022/01/31 04:33:34;;;;;;;24.48;4.72;;;;;;;5.67;52.04;100225.63;4979217;28;20129;-86
2022/01/31 04:36:00;;;;;;;37.92;4.80;;;;;;;5.53;52.33;100215.91;4996175;28;20019;-85
2022/01/31 04:38:26;;;;;;;24.20;5.47;;;;;;;5.62;52.47;100225.97;4996124;28;20554;-86
2022/01/31 04:40:51;;;;;;;45.05;5.13;;;;;;;5.61;52.40;100234.03;4996246;28;20030;-85
2022/01/31 04:43:17;;;;;;;33.70;3.35;;;;;;;5.58;52.23;100232.44;4996276;28;20133;-85
2022/01/31 04:45:47;;;;;;;28.15;5.25;;;;;;;5.50;52.61;100237.44;4978655;28;20476;-85
2022/01/31 04:48:17;;;;;;;29.92;5.00;;;;;;;5.57;52.74;100252.06;4998549;28;20030;-85
2022/01/31 04:50:43;;;;;;;33.00;4.32;;;;;;;5.45;52.73;100245.75;5004633;28;20555;-85
2022/01/31 04:53:10;;;;;;;25.25;4.15;;;;;;;5.44;52.99;100251.19;5004279;28;20073;-85
2022/01/31 04:55:36;;;;;;;24.73;4.38;;;;;;;5.45;52.83;100250.22;5007335;28;20029;-86
2022/01/31 04:58:03;;;;;;;38.88;4.90;;;;;;;5.48;52.97;100264.22;5007183;28;20388;-85
2022/01/31 05:00:28;;;;;;;22.85;5.28;;;;;;;5.50;53.21;100278.28;5009049;28;20030;-86
2022/01/31 05:02:54;;;;;;;34.22;5.80;;;;;;;5.48;53.00;100277.53;5002266;28;20030;-85
2022/01/31 05:05:21;;;;;;;28.98;4.50;;;;;;;5.47;52.90;100285.66;4995292;28;20038;-85
2022/01/31 05:07:46;;;;;;;39.03;4.45;;;;;;;5.44;53.32;100276.03;4994659;28;20030;-85
2022/01/31 05:10:12;;;;;;;18.48;4.70;;;;;;;5.54;53.17;100281.59;4994485;28;20096;-86
2022/01/31 05:12:37;;;;;;;35.13;6.47;;;;;;;5.52;53.26;100269.34;4994569;28;20026;-85
2022/01/31 05:15:04;;;;;;;23.35;5.13;;;;;;;5.62;53.19;100289.13;4995289;28;20033;-86
2022/01/31 05:17:30;;;;;;;37.08;4.97;;;;;;;5.61;52.82;100279.41;4988022;28;20029;-84
2022/01/31 05:19:55;;;;;;;33.85;4.47;;;;;;;5.38;53.52;100281.75;5017588;28;20042;-84
2022/01/31 05:22:21;;;;;;;46.90;5.95;;;;;;;5.37;53.78;100277.41;5004731;28;20034;-85
2022/01/31 05:24:46;;;;;;;30.33;4.18;;;;;;;5.35;53.68;100270.47;4977341;28;20420;-85
2022/01/31 05:27:13;;;;;;;39.15;4.90;;;;;;;5.39;53.85;100288.81;4977532;28;20026;-86
2022/01/31 05:29:38;;;;;;;31.65;4.95;;;;;;;5.34;54.00;100284.75;4994685;28;20562;-86
2022/01/31 05:32:04;;;;;;;24.33;3.50;;;;;;;5.30;53.88;100294.75;4994769;28;20034;-85
2022/01/31 05:34:30;;;;;;;38.90;5.35;;;;;;;5.39;54.25;100286.16;4994656;28;20120;-84
2022/01/31 05:36:56;;;;;;;31.17;5.25;;;;;;;5.30;54.12;100300.06;4995693;28;20041;-85
2022/01/31 05:39:26;;;;;;;26.67;5.03;;;;;;;5.25;54.17;100296.88;4976998;28;20191;-86
2022/01/31 05:41:52;;;;;;;30.23;4.25;;;;;;;5.23;54.20;100305.94;4995189;28;20026;-85
2022/01/31 05:44:20;;;;;;;46.50;4.93;;;;;;;5.16;54.54;100312.59;4994800;28;20041;-86
2022/01/31 05:46:46;;;;;;;35.28;4.75;;;;;;;5.07;55.08;100314.03;4994642;28;20030;-86
2022/01/31 05:49:11;;;;;;;38.17;5.03;;;;;;;5.10;54.88;100324.50;4995155;28;20045;-85
2022/01/31 05:52:05;;;;;;;32.55;6.70;;;;;;;5.24;54.61;100332.47;4994998;28;20125;-86
2022/01/31 05:54:32;;;;;;;25.25;4.60;;;;;;;5.23;54.85;100343.25;4996124;28;20041;-85
2022/01/31 05:56:59;;;;;;;43.53;5.95;;;;;;;5.26;54.70;100337.72;4977000;28;20485;-87
2022/01/31 05:59:25;;;;;;;35.72;5.55;;;;;;;5.32;54.96;100340.00;4995025;28;20030;-86
2022/01/31 06:01:51;;;;;;;23.00;5.18;;;;;;;5.41;54.74;100344.72;4994569;28;20499;-86
2022/01/31 06:04:17;;;;;;;30.13;5.30;;;;;;;5.36;54.55;100345.00;4994081;28;20030;-86
2022/01/31 06:06:42;;;;;;;20.63;5.75;;;;;;;5.37;54.66;100344.06;4995343;28;20037;-87
2022/01/31 06:09:07;;;;;;;41.28;7.45;;;;;;;5.47;54.23;100342.50;4985382;28;20030;-85
2022/01/31 06:11:34;;;;;;;34.53;6.43;;;;;;;5.46;54.50;100338.13;4998654;28;20165;-85
2022/01/31 06:14:10;;;;;;;35.35;7.25;;;;;;;5.56;54.35;100358.88;4980696;28;20034;-87
2022/01/31 06:16:36;;;;;;;41.47;11.38;;;;;;;5.63;54.24;100362.84;4960812;28;20041;-88
2022/01/31 06:19:02;;;;;;;23.92;6.53;;;;;;;5.62;53.96;100350.47;4976095;28;20088;-86
2022/01/31 06:21:27;;;;;;;24.52;5.18;;;;;;;5.56;54.27;100367.75;4975329;28;20109;-84
2022/01/31 06:23:53;;;;;;;16.17;4.68;;;;;;;5.63;54.18;100376.16;4956270;28;20537;-83
2022/01/31 06:26:20;;;;;;;32.47;5.75;;;;;;;5.71;54.22;100374.75;4978022;28;20456;-79
2022/01/31 06:28:47;;;;;;;21.83;5.38;;;;;;;5.68;54.00;100368.75;4993370;28;20093;-85
2022/01/31 06:31:13;;;;;;;17.33;4.63;;;;;;;5.74;54.20;100368.34;4993636;28;20037;-83
2022/01/31 06:33:38;;;;;;;67.18;7.60;;;;;;;5.75;54.02;100380.75;4993989;28;20444;-83
2022/01/31 06:36:04;;;;;;;33.08;5.70;;;;;;;5.74;54.08;100371.00;4993861;28;20114;-91
2022/01/31 06:38:29;;;;;;;46.17;7.60;;;;;;;5.80;54.05;100374.13;4993623;28;20030;-84
2022/01/31 06:40:55;;;;;;;29.48;6.53;;;;;;;5.68;53.56;100360.75;4994378;28;20030;-89
2022/01/31 06:43:21;;;;;;;28.67;5.00;;;;;;;5.81;53.70;100375.00;4994760;28;20045;-87
2022/01/31 06:45:47;;;;;;;32.20;5.75;;;;;;;5.81;53.63;100369.66;4974755;28;20025;-81
2022/01/31 06:48:12;;;;;;;26.88;4.85;;;;;;;5.89;53.77;100388.72;4992444;28;20102;-82
2022/01/31 06:50:38;;;;;;;31.67;4.90;;;;;;;5.87;53.71;100387.97;4972153;28;20058;-82
2022/01/31 06:53:05;;;;;;;31.45;4.50;;;;;;;5.85;53.39;100376.47;4973971;28;20110;-80
2022/01/31 06:55:33;;;;;;;35.00;6.68;;;;;;;5.86;53.56;100394.25;4953798;28;20059;-80
2022/01/31 06:58:00;;;;;;;40.08;5.35;;;;;;;5.95;53.67;100393.66;4969731;28;20038;-84
2022/01/31 07:00:25;;;;;;;41.72;6.50;;;;;;;6.01;53.28;100390.56;4968437;29;20027;-83
2022/01/31 07:02:51;;;;;;;27.17;5.38;;;;;;;6.00;53.34;100391.53;4955455;29;20126;-82
2022/01/31 07:05:17;;;;;;;42.38;8.07;;;;;;;5.98;53.02;100382.75;4954741;28;20037;-83
2022/01/31 07:07:44;;;;;;;39.28;6.20;;;;;;;6.04;53.05;100387.69;4971537;28;20011;-78
2022/01/31 07:10:10;;;;;;;35.42;6.07;;;;;;;5.99;53.01;100360.47;4972591;28;20477;-80
2022/01/31 07:12:39;;;;;;;37.33;6.05;;;;;;;6.06;52.93;100369.75;4972960;28;20405;-79
2022/01/31 07:15:07;;;;;;;37.67;5.85;;;;;;;6.01;52.90;100378.09;4972794;28;20038;-80
2022/01/31 07:17:35;;;;;;;45.03;6.53;;;;;;;5.95;52.96;100361.63;4956793;28;20139;-83
2022/01/31 07:20:03;;;;;;;34.03;5.38;;;;;;;6.02;52.58;100365.59;4957655;28;20030;-78
2022/01/31 07:22:34;;;;;;;32.90;6.43;;;;;;;5.94;52.68;100362.56;4956720;28;20054;-81
2022/01/31 07:25:08;;;;;;;32.67;6.70;;;;;;;6.02;53.10;100360.25;4965014;28;20166;-79
2022/01/31 07:27:35;;;;;;;45.05;6.22;;;;;;;5.98;52.92;100358.75;4976096;28;20086;-81
2022/01/31 07:30:02;;;;;;;32.40;7.53;;;;;;;6.10;52.81;100355.25;4976181;28;20033;-80
2022/01/31 07:32:28;;;;;;;38.83;6.22;;;;;;;6.15;52.45;100358.47;4976228;28;20030;-81
2022/01/31 07:34:55;;;;;;;44.17;6.93;;;;;;;6.14;52.53;100356.78;4974947;28;20039;-81
2022/01/31 07:37:25;;;;;;;48.67;5.57;;;;;;;6.20;52.29;100366.16;4976410;28;20023;-80
2022/01/31 07:39:51;;;;;;;41.47;7.20;;;;;;;6.26;52.10;100355.06;4975695;28;20061;-81
2022/01/31 07:42:17;;;;;;;38.05;5.70;;;;;;;6.30;51.97;100356.59;4975526;28;20058;-81
2022/01/31 07:44:43;;;;;;;39.08;5.47;;;;;;;6.25;51.90;100354.22;4974055;28;20082;-80
2022/01/31 07:47:09;;;;;;;32.92;5.40;;;;;;;6.38;51.79;100348.91;4976341;28;20520;-79
2022/01/31 07:49:35;;;;;;;52.38;5.85;;;;;;;6.34;51.75;100342.91;4970953;28;20050;-82
2022/01/31 07:52:00;;;;;;;35.33;6.60;;;;;;;6.35;51.55;100354.44;4975301;28;20047;-81
2022/01/31 07:54:27;;;;;;;40.60;6.55;;;;;;;6.38;51.39;100349.75;4976093;28;20362;-81
2022/01/31 07:56:53;;;;;;;46.17;6.53;;;;;;;6.27;51.60;100336.25;4958954;28;20019;-82
2022/01/31 07:59:19;;;;;;;32.30;6.30;;;;;;;6.32;51.59;100350.19;4985373;28;20036;-81
2022/01/31 08:01:44;;;;;;;42.78;6.53;;;;;;;6.41;51.48;100352.22;4996166;28;20030;-81
2022/01/31 08:04:10;;;;;;;28.38;5.60;;;;;;;6.40;51.28;100347.81;4996812;28;20429;-81
2022/01/31 08:06:36;;;;;;;26.63;6.53;;;;;;;6.48;51.58;100361.50;4997288;28;20023;-80
2022/01/31 08:09:05;;;;;;;42.50;5.35;;;;;;;6.53;50.81;100343.34;4996426;28;20085;-84
2022/01/31 08:11:33;;;;;;;32.72;6.60;;;;;;;6.54;50.62;100339.69;4978870;28;20034;-81
2022/01/31 08:14:05;;;;;;;30.77;5.72;;;;;;;6.64;50.53;100349.75;5000261;28;20026;-86
2022/01/31 08:16:30;;;;;;;37.78;6.68;;;;;;;6.71;49.89;100308.28;4981546;28;20047;-87
2022/01/31 08:18:55;;;;;;;24.75;5.93;;;;;;;6.93;49.54;100341.41;4981000;28;20038;-81
2022/01/31 08:21:44;;;;;;;51.80;10.88;;;;;;;6.96;49.38;100327.84;5035273;23;20089;-84
2022/01/31 08:24:11;;;;;;;44.13;8.90;;;;;;;7.04;49.62;100319.25;5010199;28;20057;-83
2022/01/31 08:26:37;;;;;;;43.92;8.88;;;;;;;7.10;48.79;100305.44;5026719;28;20025;-90
2022/01/31 08:29:14;;;;;;;30.83;7.05;;;;;;;7.22;49.23;100304.56;5001511;28;20029;-80
2022/01/31 08:31:40;;;;;;;22.00;6.72;;;;;;;7.32;48.71;100284.19;5018820;28;20112;-87
2022/01/31 08:34:22;;;;;;;53.00;5.78;;;;;;;7.53;48.25;100312.03;4999105;28;20026;-84
2022/01/31 08:36:48;;;;;;;40.40;6.20;;;;;;;7.64;48.02;100311.25;5024320;28;20377;-86
2022/01/31 08:39:19;;;;;;;34.67;5.50;;;;;;;7.74;47.63;100316.75;5038865;28;20026;-83
2022/01/31 08:41:49;;;;;;;37.70;8.77;;;;;;;8.01;46.98;100325.44;5013442;28;20030;-83
2022/01/31 08:44:17;;;;;;;35.75;6.55;;;;;;;8.05;46.64;100332.25;5016641;28;20030;-84
2022/01/31 08:46:45;;;;;;;32.85;5.28;;;;;;;8.20;46.78;100325.72;4998539;28;20029;-85
2022/01/31 08:49:13;;;;;;;30.10;5.53;;;;;;;8.23;46.69;100320.97;5001875;28;20034;-83
2022/01/31 08:51:40;;;;;;;27.30;5.85;;;;;;;8.16;46.26;100313.53;4996537;28;20497;-85
2022/01/31 08:59:18;;;;;;;32.22;6.10;;;;;;;8.57;44.75;100339.84;5009972;23;20054;-84
2022/01/31 09:01:52;;;;;;;49.05;7.57;;;;;;;8.61;45.09;100319.88;5005218;28;20049;-86
2022/01/31 09:04:47;;;;;;;34.03;6.53;;;;;;;8.63;45.03;100324.13;5006909;28;20094;-85
2022/01/31 09:07:13;;;;;;;26.88;5.82;;;;;;;8.53;44.84;100307.06;5000453;28;20018;-84
2022/01/31 09:09:38;;;;;;;23.92;4.78;;;;;;;8.58;44.80;100325.47;4996371;28;20033;-90
2022/01/31 09:12:07;;;;;;;32.03;6.15;;;;;;;8.78;44.04;100338.16;4995242;28;20026;-87
2022/01/31 09:14:33;;;;;;;27.15;7.70;;;;;;;8.71;44.48;100337.78;4995432;28;20031;-89
2022/01/31 09:16:58;;;;;;;38.08;5.45;;;;;;;8.85;44.42;100338.53;4994487;28;20030;-86
2022/01/31 09:19:36;;;;;;;34.95;5.95;;;;;;;8.93;43.53;100331.59;4999874;28;20030;-86
2022/01/31 09:22:05;;;;;;;26.30;4.97;;;;;;;8.97;44.03;100324.16;4992151;28;20042;-86
2022/01/31 09:24:36;;;;;;;31.42;4.18;;;;;;;8.95;43.72;100307.34;4994065;28;20481;-86
2022/01/31 09:27:03;;;;;;;34.22;5.95;;;;;;;9.06;43.41;100320.75;5005357;28;20015;-87
2022/01/31 09:29:28;;;;;;;23.35;5.10;;;;;;;9.16;43.39;100311.00;4997629;28;20060;-84
2022/01/31 09:31:54;;;;;;;39.60;5.75;;;;;;;9.13;43.07;100292.47;4995286;28;20560;-88
2022/01/31 09:34:21;;;;;;;29.73;5.53;;;;;;;9.35;43.17;100295.13;4977840;28;20028;-85
2022/01/31 09:36:47;;;;;;;29.20;4.95;;;;;;;9.42;42.60;100296.28;4997539;28;20031;-91
2022/01/31 09:39:12;;;;;;;24.58;6.43;;;;;;;9.47;42.66;100288.75;4998733;28;20503;-93
2022/01/31 09:41:41;;;;;;;22.13;5.88;;;;;;;9.39;42.75;100267.03;4979169;28;20894;-90
2022/01/31 09:46:53;;;;;;;22.50;4.60;;;;;;;9.60;41.88;100273.31;4987263;28;20466;-88
2022/01/31 09:49:21;;;;;;;24.42;5.35;;;;;;;9.65;42.25;100265.75;4993598;28;20056;-82
2022/01/31 09:51:46;;;;;;;16.55;5.03;;;;;;;9.77;42.10;100258.47;4992170;28;20034;-79
2022/01/31 09:54:12;;;;;;;29.35;4.45;;;;;;;9.77;41.73;100253.13;4989190;28;20095;-79
2022/01/31 09:56:45;;;;;;;36.58;5.05;;;;;;;9.67;41.36;100268.28;4999814;28;20018;-84
2022/01/31 09:59:12;;;;;;;29.48;6.07;;;;;;;9.59;41.80;100244.78;5007818;28;20050;-82
2022/01/31 10:01:52;;;;;;;30.90;5.20;;;;;;;9.69;41.64;100242.19;5006398;28;20041;-87
2022/01/31 10:04:20;;;;;;;25.13;5.53;;;;;;;9.77;41.25;100248.59;5010618;28;20030;-84
2022/01/31 10:06:51;;;;;;;25.73;7.00;;;;;;;9.82;40.96;100248.19;5014423;28;20022;-84
2022/01/31 10:09:25;;;;;;;20.40;5.20;;;;;;;9.79;41.14;100230.50;5017092;28;20030;-79
2022/01/31 10:11:53;;;;;;;32.55;5.47;;;;;;;9.71;41.29;100230.31;5016539;28;20093;-82
2022/01/31 10:17:29;;;;;;;19.52;4.80;;;;;;;9.76;40.99;100232.59;5014630;28;20065;-80
2022/01/31 10:19:58;;;;;;;28.17;4.30;;;;;;;9.81;41.00;100225.84;5015085;28;20037;-82
2022/01/31 10:22:25;;;;;;;21.85;4.97;;;;;;;9.88;40.98;100225.38;5131413;23;20280;-86
2022/01/31 10:24:54;;;;;;;29.85;5.05;;;;;;;9.91;40.22;100217.03;5025700;28;20029;-82
2022/01/31 10:27:23;;;;;;;11.77;3.90;;;;;;;9.87;40.05;100204.84;5027585;28;20018;-86
2022/01/31 10:29:51;;;;;;;29.25;4.65;;;;;;;9.98;40.00;100215.53;5024686;28;20500;-85
2022/01/31 10:32:30;;;;;;;23.65;5.57;;;;;;;9.97;40.00;100206.59;5022094;28;20021;-83
2022/01/31 10:34:58;;;;;;;26.75;7.68;;;;;;;9.95;40.21;100205.03;5025152;28;20454;-81
2022/01/31 10:37:26;;;;;;;20.02;5.82;;;;;;;10.07;39.80;100195.91;5022671;28;20026;-79
2022/01/31 10:53:54;;;;;;;23.88;5.13;;;;;;;10.57;38.77;100165.53;5012502;28;20026;-84
2022/01/31 10:56:20;;;;;;;15.88;5.35;;;;;;;10.69;38.09;100177.03;5017346;28;20058;-84
2022/01/31 10:59:01;;;;;;;30.40;6.32;;;;;;;10.80;38.19;100168.84;5006287;28;20061;-83
2022/01/31 11:01:28;;;;;;;20.20;4.30;;;;;;;10.72;37.90;100157.91;4996596;28;20054;-82
2022/01/31 11:03:55;;;;;;;43.28;6.78;;;;;;;10.78;37.68;100150.16;5003155;28;20032;-82
2022/01/31 11:06:25;;;;;;;52.53;7.75;;;;;;;10.82;38.08;100130.03;5016363;28;20022;-87
2022/01/31 11:08:52;;;;;;;16.65;5.18;;;;;;;10.97;37.99;100125.13;5017993;28;20025;-89
2022/01/31 11:11:21;;;;;;;25.27;7.95;;;;;;;11.15;37.18;100150.38;5017012;28;20095;-92
2022/01/31 11:13:48;;;;;;;21.17;5.55;;;;;;;11.17;36.88;100143.00;5019632;28;20025;-87
2022/01/31 11:16:15;;;;;;;24.15;5.65;;;;;;;11.13;36.82;100127.28;5016947;28;20032;-92
2022/01/31 11:18:44;;;;;;;27.38;6.30;;;;;;;11.11;36.86;100107.72;5017033;28;20029;-87
2022/01/31 11:21:11;;;;;;;28.50;5.22;;;;;;;11.16;37.01;100122.44;5015466;28;20044;-87
2022/01/31 11:23:40;;;;;;;21.80;6.32;;;;;;;11.24;36.93;100117.22;5006747;28;20047;-84
2022/01/31 11:26:09;;;;;;;25.65;8.63;;;;;;;11.43;36.62;100130.69;4996138;28;20473;-84
2022/01/31 11:28:38;;;;;;;12.70;5.05;;;;;;;11.51;36.00;100116.50;4997064;28;20035;-83
2022/01/31 11:31:04;;;;;;;34.85;6.20;;;;;;;11.59;35.91;100119.31;5009957;28;20033;-84
2022/01/31 11:33:30;;;;;;;17.88;4.13;;;;;;;11.52;35.61;100112.81;4999308;28;20041;-81
2022/01/31 11:35:56;;;;;;;19.70;4.68;;;;;;;11.56;35.98;100119.59;4997027;28;20042;-84
2022/01/31 11:38:22;;;;;;;20.83;4.60;;;;;;;11.35;35.43;100102.75;5000637;28;20034;-89
2022/01/31 11:40:48;;;;;;;25.33;5.00;;;;;;;11.47;35.55;100096.22;5000033;28;20124;-94
2022/01/31 11:43:18;;;;;;;19.30;4.38;;;;;;;11.52;34.92;100118.22;4979588;28;20026;-89
2022/01/31 11:45:45;;;;;;;23.70;5.60;;;;;;;11.64;35.35;100117.06;5008956;28;20025;-88
2022/01/31 11:48:19;;;;;;;34.72;5.57;;;;;;;11.74;34.96;100099.03;5018983;28;20411;-89
2022/01/31 11:53:39;;;;;;;14.25;5.38;;;;;;;11.87;34.55;100099.59;5735335;23;20044;-85
2022/01/31 11:56:18;;;;;;;24.45;5.45;;;;;;;11.88;33.86;100098.59;5000924;28;20041;-88